Terminal Aerodrome Forecast
Issued by NWS

Home | Current Version | Previous Version | Graphics & Text | Print | Product List | Glossary On
Versions: 1 2 3 4 5 6 7 8 9 10 11 12 13 14 15 16 17 18 19 20 21 22 23
000
FTUS43 KLOT 211610 AAB
TAFGYY
TAF AMD
KGYY 211610Z 2116/2212 25012G25KT P6SM SCT060 OVC100
     FM211700 30015G25KT P6SM -RA BKN040
      TEMPO 2117/2119 6SM -RA
     FM211900 30015G25KT P6SM OVC050
     FM220000 32012G18KT P6SM SCT040
     FM220400 32008KT P6SM SKC=

USA.gov is the U.S. government's official web portal to all federal, state and local government web resources and services.